Etusivu
METAR-TAF:

METAR-TAF

Lentoasemat :

Brownwood, Texas, Yhdysvallat

Leveyspiiri: 31-48N, Pituuspiiri: 098-57W, korkeus merenpinnasta: 422 m

Tämänhetkinen sää

Tämä raportti tehtiin 25 minuuttia sitten, kello 19.55 UTC
Tuuli 20 kn pohjoisesta puuskistuen 30 kn:hen
Lämpötila 20°C
Kosteus 37%
Ilmanpaine 1016 hPa
Näkyvyys: 16.1 km
Hajanaisia pilviä 5500 ft:n korkeudessa

METAR: KBWD 051955Z AUTO 35020G30KT 10SM SCT055 20/05 A3001 RMK AO1

Aika: 14:20 (20:20 UTC)


TAF: puuttuu

Säähavainnot ja -ennusteet yli 4000 lentoasemalta (METAR- ja TAF-raportit).

Käytössä olevat sääasemat on merkitty karttaan keltaisilla ja punaisilla pisteillä.

Aseta hiiri pisteen päälle nähdäksesi sääaseman nimen.

Klikkaa sitten nähdäksesi säähavainnot ja -ennusteet.

Kartan vaihtaminen: klikkaa mustalla rastilla varustettuja vihreitä pisteitä, niin voit zoomata sisään; viivalla varustettua vihreää pistettä, niin voit zoomata ulos tai vihreitä nuolia, niin pääset viereisille kartoille.


METAR-TAF: